Mariq — SVA2152 — position and weather

sailwx.info

Track history (hours):
 
Tides and Currents Weather Stations Pressure Air Temp Water Temp Dewpoint Dewpoint Depression Visibility Wind Speed Wind Dir Waves Ship Positions

Mariq

Last reported at 2016-Apr-29 00:06 UTC. Time now 2016-May-05 19:58 UTC.
Position N 36°38' E 027°28'.

Length 57 m.

Type: Tanker. MMSI: 239758424.

Date/timePositionNaut miles runAvg speedWind from/ knotsBaromVisibWave heightAir tempDewpointWater temp
2016-Apr-29 00:06N 36°38' E 027°28'32 7.0
2016-Apr-28 19:33N 37°03' E 027°03'12 8.1
2016-Apr-28 18:05N 37°11' E 026°53'15 9.6
2016-Apr-28 16:31N 37°19' E 026°36'3 0.3
2016-Apr-28 06:33N 37°19' E 026°33'0 0.0
2016-Apr-28 04:04N 37°19' E 026°33'  
2016-Apr-23 03:29N 37°42' E 024°04'0 0.0
2016-Apr-22 22:31N 37°42' E 024°04'0 0.0
2016-Apr-22 19:08N 37°42' E 024°04'0 0.0
2016-Apr-22 18:09N 37°42' E 024°04'0 0.0
2016-Apr-22 17:27N 37°42' E 024°04'50 2.9
2016-Apr-22 00:24N 37°04' E 024°44'16 8.4
2016-Apr-21 22:30N 36°55' E 025°00'12 9.4
2016-Apr-21 21:14N 36°54' E 025°15'6 9.0
2016-Apr-21 20:32N 36°53' E 025°23'7 0.9
2016-Apr-21 13:08N 36°54' E 025°31'5 0.6
2016-Apr-21 05:19N 36°49' E 025°33'7 9.6
2016-Apr-21 04:33N 36°50' E 025°42'8 1.9
2016-Apr-21 00:16N 36°50' E 025°52'0 0.0
2016-Apr-20 23:29N 36°50' E 025°52'0 0.0
2016-Apr-20 22:32N 36°50' E 025°52'0 0.0
2016-Apr-20 14:32N 36°50' E 025°52'5 5.2
2016-Apr-20 13:33N 36°54' E 025°55'4 0.5
2016-Apr-20 05:29N 36°57' E 025°59'17 8.8
2016-Apr-20 03:29N 36°51' E 026°19'8 8.8
2016-Apr-20 02:33N 36°47' E 026°29'12 8.8
2016-Apr-20 01:14N 36°42' E 026°42'6 8.8
2016-Apr-20 00:33N 36°39' E 026°48'9 9.2
2016-Apr-19 23:33N 36°35' E 026°59'36 8.9
2016-Apr-19 19:30N 36°30' E 027°43'  
Track history (hours):
 
Tides and Currents Weather Stations Pressure Air Temp Water Temp Dewpoint Dewpoint Depression Visibility Wind Speed Wind Dir Waves Ship Positions

Mariq

Last reported at 2016-Apr-29 00:06 UTC. Time now 2016-May-05 19:59 UTC.
Position N 36°38' E 027°28'.

Length 57 m.

Type: Tanker. MMSI: 239758424.

Date/timePositionNaut miles runAvg speedWind from/ knotsBaromVisibWave heightAir tempDewpointWater temp
2016-Apr-29 00:06N 36°38' E 027°28'32 7.0
2016-Apr-28 19:33N 37°03' E 027°03'12 8.1
2016-Apr-28 18:05N 37°11' E 026°53'15 9.6
2016-Apr-28 16:31N 37°19' E 026°36'3 0.3
2016-Apr-28 06:33N 37°19' E 026°33'0 0.0
2016-Apr-28 04:04N 37°19' E 026°33'  
2016-Apr-23 03:29N 37°42' E 024°04'0 0.0
2016-Apr-22 22:31N 37°42' E 024°04'0 0.0
2016-Apr-22 19:08N 37°42' E 024°04'0 0.0
2016-Apr-22 18:09N 37°42' E 024°04'0 0.0
2016-Apr-22 17:27N 37°42' E 024°04'50 2.9
2016-Apr-22 00:24N 37°04' E 024°44'16 8.4
2016-Apr-21 22:30N 36°55' E 025°00'12 9.4
2016-Apr-21 21:14N 36°54' E 025°15'6 9.0
2016-Apr-21 20:32N 36°53' E 025°23'7 0.9
2016-Apr-21 13:08N 36°54' E 025°31'5 0.6
2016-Apr-21 05:19N 36°49' E 025°33'7 9.6
2016-Apr-21 04:33N 36°50' E 025°42'8 1.9
2016-Apr-21 00:16N 36°50' E 025°52'0 0.0
2016-Apr-20 23:29N 36°50' E 025°52'0 0.0
2016-Apr-20 22:32N 36°50' E 025°52'0 0.0
2016-Apr-20 14:32N 36°50' E 025°52'5 5.2
2016-Apr-20 13:33N 36°54' E 025°55'4 0.5
2016-Apr-20 05:29N 36°57' E 025°59'17 8.8
2016-Apr-20 03:29N 36°51' E 026°19'8 8.8
2016-Apr-20 02:33N 36°47' E 026°29'12 8.8
2016-Apr-20 01:14N 36°42' E 026°42'6 8.8
2016-Apr-20 00:33N 36°39' E 026°48'9 9.2
2016-Apr-19 23:33N 36°35' E 026°59'36 8.9
2016-Apr-19 19:30N 36°30' E 027°43'  

Dump ship's entire track history